Time;durP1;ratioP1;P1;durP2;ratioP2;P2;SDS_P1;SDS_P2;PMS_P1;PMS_P2;Temp;Humidity;BMP_temperature;BMP_pressure;BME280_temperature;BME280_humidity;BME280_pressure;Samples;Min_cycle;Max_cycle;Signal;HPM_P1;HPM_P2
2022/07/11 04:18:40;;;;;;;4.25;2.05;;;;;;;13.81;70.50;100606.63;5563320;32;199767;-86
2022/07/11 04:21:43;;;;;;;2.53;2.03;;;;;;;13.81;70.50;100606.63;5549959;32;34035;-85
2022/07/11 04:24:45;;;;;;;5.35;1.95;;;;;;;13.53;70.90;100618.06;5547914;32;34122;-86
2022/07/11 04:27:48;;;;;;;3.45;1.95;;;;;;;13.70;69.94;100615.28;5545541;32;33786;-84
2022/07/11 04:30:51;;;;;;;4.47;2.00;;;;;;;13.95;69.23;100618.28;5546115;32;33934;-84
2022/07/11 04:33:54;;;;;;;3.72;2.08;;;;;;;14.10;68.02;100613.81;5546244;32;33484;-84
2022/07/11 04:36:56;;;;;;;4.70;1.80;;;;;;;14.44;66.82;100621.56;5546108;32;34146;-84
2022/07/11 04:40:02;;;;;;;3.83;2.25;;;;;;;14.51;66.41;100618.41;5545769;32;34090;-86
2022/07/11 04:43:08;;;;;;;7.00;2.05;;;;;;;14.67;65.66;100617.44;5547416;32;34233;-86
2022/07/11 04:46:11;;;;;;;4.65;1.90;;;;;;;14.59;65.81;100617.91;5544873;32;33815;-86
2022/07/11 04:49:14;;;;;;;5.50;1.92;;;;;;;14.69;65.80;100615.53;5544846;32;34383;-87
2022/07/11 04:52:17;;;;;;;4.75;1.98;;;;;;;15.00;64.44;100618.97;5544907;32;33935;-86
2022/07/11 04:55:20;;;;;;;2.85;1.95;;;;;;;15.11;63.86;100622.72;5544406;32;33562;-87
2022/07/11 04:58:23;;;;;;;5.72;1.73;;;;;;;15.36;63.34;100620.19;5544440;32;33793;-85
2022/07/11 05:01:25;;;;;;;3.37;1.65;;;;;;;15.72;62.08;100625.84;5544382;32;34938;-85
2022/07/11 05:04:28;;;;;;;3.05;1.92;;;;;;;15.89;61.52;100622.00;5544398;32;33522;-85
2022/07/11 05:07:31;;;;;;;3.80;1.87;;;;;;;16.08;60.31;100625.28;5544443;32;33798;-85
2022/07/11 05:10:36;;;;;;;4.53;1.42;;;;;;;15.90;60.15;100625.56;5544177;32;34099;-85
2022/07/11 05:13:38;;;;;;;4.35;1.83;;;;;;;15.99;60.07;100626.78;5550401;32;34528;-85
2022/07/11 05:16:41;;;;;;;2.47;1.70;;;;;;;15.97;60.58;100634.91;5556767;32;33914;-85
2022/07/11 05:19:44;;;;;;;5.15;1.85;;;;;;;16.33;59.25;100619.06;5557681;32;34950;-85
2022/07/11 05:22:47;;;;;;;3.08;1.80;;;;;;;17.40;55.67;100631.97;5546588;32;33790;-85
2022/07/11 05:25:49;;;;;;;4.25;2.10;;;;;;;17.85;54.51;100630.47;5543519;32;34152;-85
2022/07/11 05:28:53;;;;;;;2.60;1.50;;;;;;;18.85;52.43;100635.22;5535203;32;34436;-85
2022/07/11 05:31:55;;;;;;;4.47;1.65;;;;;;;19.99;47.72;100630.44;5529940;32;35072;-85
2022/07/11 05:34:58;;;;;;;3.95;1.62;;;;;;;23.77;38.62;100627.91;5530877;32;33687;-85
2022/07/11 05:38:01;;;;;;;3.87;1.50;;;;;;;25.37;35.08;100628.50;5530419;32;33710;-85
2022/07/11 05:41:04;;;;;;;9.07;1.60;;;;;;;26.61;33.08;100628.38;5531335;32;33799;-85
2022/07/11 05:44:07;;;;;;;4.03;1.45;;;;;;;27.11;31.60;100636.34;5531474;32;34396;-89
2022/07/11 05:47:09;;;;;;;2.70;1.20;;;;;;;29.36;28.57;100631.31;5531909;32;33742;-89
2022/07/11 05:50:12;;;;;;;2.33;1.05;;;;;;;32.17;25.21;100633.84;5533166;32;33728;-89
2022/07/11 05:53:15;;;;;;;4.62;1.40;;;;;;;33.48;22.69;100627.34;5530162;32;32315;-90
2022/07/11 05:56:17;;;;;;;3.58;1.10;;;;;;;31.25;24.74;100630.63;5530782;32;34057;-92
2022/07/11 05:59:21;;;;;;;4.32;1.30;;;;;;;30.65;26.14;100632.09;5531442;32;33916;-88
2022/07/11 06:02:23;;;;;;;3.65;1.40;;;;;;;31.68;24.79;100636.81;5530713;32;34061;-87
2022/07/11 06:05:27;;;;;;;4.47;1.40;;;;;;;31.23;24.53;100634.59;5531403;32;34827;-88
2022/07/11 06:08:42;;;;;;;3.10;1.25;;;;;;;30.49;25.67;100641.50;5531036;32;34450;-88
2022/07/11 06:11:44;;;;;;;4.50;1.20;;;;;;;28.97;27.59;100638.88;5531672;32;33467;-88
2022/07/11 06:14:47;;;;;;;4.15;1.37;;;;;;;26.97;30.96;100646.13;5530868;32;32620;-88
2022/07/11 06:17:50;;;;;;;3.10;1.45;;;;;;;27.41;29.73;100644.66;5531042;32;34854;-88
2022/07/11 06:20:53;;;;;;;4.75;1.60;;;;;;;25.58;32.76;100640.78;5536484;32;34218;-88
2022/07/11 06:23:56;;;;;;;1.62;1.02;;;;;;;25.75;33.75;100641.63;5545743;32;34117;-88
2022/07/11 06:27:00;;;;;;;3.42;1.77;;;;;;;26.61;32.13;100647.44;5544961;32;33253;-88
2022/07/11 06:30:03;;;;;;;4.95;1.77;;;;;;;26.57;31.95;100646.09;5546256;32;34069;-90
2022/07/11 06:33:06;;;;;;;3.70;1.65;;;;;;;29.43;27.57;100644.00;5545329;32;34140;-87
2022/07/11 06:36:09;;;;;;;4.12;1.30;;;;;;;28.57;29.49;100639.19;5541492;32;34311;-86
2022/07/11 06:39:12;;;;;;;5.65;1.70;;;;;;;29.07;28.59;100633.97;5546487;32;34726;-87
2022/07/11 06:42:14;;;;;;;4.95;1.27;;;;;;;28.68;29.45;100646.03;5541259;32;33609;-87
2022/07/11 06:45:20;;;;;;;3.90;1.40;;;;;;;28.24;29.77;100643.13;5530721;32;33796;-86
2022/07/11 06:48:24;;;;;;;4.40;1.30;;;;;;;27.34;31.01;100634.69;5530439;32;33890;-86
2022/07/11 06:51:26;;;;;;;4.12;1.48;;;;;;;26.84;31.82;100643.94;5529883;32;34094;-87
2022/07/11 06:54:35;;;;;;;10.20;1.98;;;;;;;24.42;35.63;100658.34;5529672;32;34434;-86
2022/07/11 06:57:37;;;;;;;3.33;1.27;;;;;;;23.45;37.37;100655.53;5529285;32;35088;-86
2022/07/11 07:00:40;;;;;;;4.87;1.98;;;;;;;22.78;39.67;100646.66;5529531;32;34815;-87
2022/07/11 07:03:43;;;;;;;3.72;1.52;;;;;;;22.72;40.32;100655.38;5529770;32;35353;-86
2022/07/11 07:06:46;;;;;;;5.00;1.98;;;;;;;23.02;38.85;100651.53;5532240;32;34520;-87
2022/07/11 07:09:50;;;;;;;6.80;1.87;;;;;;;23.32;38.42;100653.22;5529596;32;33799;-88
2022/07/11 07:12:53;;;;;;;5.68;1.95;;;;;;;22.21;42.27;100653.81;5530755;32;33889;-87
2022/07/11 07:15:57;;;;;;;3.78;1.75;;;;;;;22.13;42.26;100650.13;5530384;32;33981;-87
2022/07/11 07:19:00;;;;;;;5.75;2.08;;;;;;;23.78;38.69;100655.84;5532570;32;34533;-87
2022/07/11 07:22:03;;;;;;;6.97;1.95;;;;;;;23.67;38.11;100662.34;5530938;32;34511;-87
2022/07/11 07:25:07;;;;;;;4.90;1.87;;;;;;;23.05;39.30;100658.47;5529835;32;34793;-87
2022/07/11 07:28:10;;;;;;;2.00;1.30;;;;;;;23.76;37.63;100665.97;5530580;32;33976;-88
2022/07/11 07:31:13;;;;;;;2.95;1.60;;;;;;;24.68;36.34;100662.03;5530877;32;34994;-87
2022/07/11 07:34:19;;;;;;;3.92;1.70;;;;;;;24.06;37.15;100663.84;5530451;32;35187;-88
2022/07/11 07:37:22;;;;;;;10.07;2.08;;;;;;;24.22;37.22;100664.00;5532488;32;34496;-88
2022/07/11 07:40:25;;;;;;;4.95;1.92;;;;;;;24.32;37.64;100657.59;5533205;32;32337;-88
2022/07/11 07:43:29;;;;;;;2.70;1.52;;;;;;;23.15;38.42;100663.81;5545186;32;34450;-87
2022/07/11 07:46:32;;;;;;;3.15;1.52;;;;;;;23.49;39.54;100665.88;5540909;32;33957;-87
2022/07/11 07:49:35;;;;;;;5.62;1.67;;;;;;;23.50;39.66;100672.16;5529226;32;32345;-86
2022/07/11 07:52:38;;;;;;;10.63;2.05;;;;;;;23.14;38.26;100668.38;5529734;32;32954;-86
2022/07/11 07:55:41;;;;;;;6.62;1.90;;;;;;;22.75;39.65;100666.75;5528987;32;33793;-91
2022/07/11 07:58:43;;;;;;;5.10;1.80;;;;;;;22.40;40.05;100664.72;5528717;32;35055;-91
2022/07/11 08:01:47;;;;;;;4.97;2.08;;;;;;;22.21;41.72;100666.47;5528934;32;33947;-91
2022/07/11 08:04:50;;;;;;;6.60;2.08;;;;;;;22.08;41.87;100664.94;5528281;32;34088;-90
2022/07/11 08:07:52;;;;;;;5.22;1.70;;;;;;;22.43;40.47;100659.03;5528105;32;34473;-87
2022/07/11 08:10:55;;;;;;;3.22;1.75;;;;;;;22.72;40.34;100652.66;5528132;32;34294;-87
2022/07/11 08:14:18;;;;;;;3.95;1.80;;;;;;;23.31;38.98;100644.25;5527544;32;33219;-87
2022/07/11 08:17:21;;;;;;;5.20;1.55;;;;;;;23.96;37.63;100653.97;5528158;32;34909;-87
2022/07/11 08:20:23;;;;;;;4.97;2.08;;;;;;;23.76;36.84;100655.13;5528382;32;33842;-88
2022/07/11 08:23:26;;;;;;;8.13;1.77;;;;;;;23.76;37.37;100645.16;5529299;32;33902;-88
2022/07/11 08:26:29;;;;;;;6.10;1.90;;;;;;;23.82;38.32;100646.38;5528410;32;32153;-87
2022/07/11 08:29:36;;;;;;;5.03;1.58;;;;;;;24.82;35.55;100636.16;5528757;32;35601;-88
2022/07/11 08:32:40;;;;;;;2.95;1.30;;;;;;;26.08;33.49;100636.16;5528105;32;34190;-87
2022/07/11 08:35:44;;;;;;;2.95;1.15;;;;;;;26.24;32.55;100638.03;5529110;32;33669;-87
2022/07/11 08:38:46;;;;;;;6.53;1.65;;;;;;;25.74;33.62;100635.34;5527931;32;34745;-87
2022/07/11 08:41:49;;;;;;;6.05;1.67;;;;;;;27.15;31.58;100639.56;5528168;32;34760;-87
2022/07/11 08:44:55;;;;;;;5.28;1.58;;;;;;;27.79;30.18;100621.22;5529516;32;34416;-88
2022/07/11 08:47:58;;;;;;;9.90;1.65;;;;;;;27.39;29.82;100624.94;5528111;32;35175;-87
2022/07/11 08:51:02;;;;;;;2.42;1.40;;;;;;;27.59;29.19;100621.72;5527023;32;32398;-89
2022/07/11 08:54:10;;;;;;;4.75;1.30;;;;;;;27.11;29.26;100622.72;5531067;32;34787;-88
2022/07/11 08:57:37;;;;;;;1.52;1.15;;;;;;;27.48;29.69;100614.81;5529790;32;34915;-88
2022/07/11 09:00:44;;;;;;;2.60;1.50;;;;;;;27.62;28.74;100620.53;5528636;32;33979;-88
2022/07/11 09:03:53;;;;;;;3.45;1.27;;;;;;;26.00;31.19;100618.03;5533310;32;34144;-88
2022/07/11 09:06:59;;;;;;;6.47;1.40;;;;;;;26.66;29.96;100617.00;5531031;32;34029;-88
2022/07/11 09:10:02;;;;;;;6.05;1.50;;;;;;;27.10;28.90;100615.59;5530221;32;32841;-87
2022/07/11 09:13:10;;;;;;;7.30;1.75;;;;;;;27.05;28.52;100618.00;5530034;32;32651;-88
2022/07/11 09:16:13;;;;;;;5.28;1.52;;;;;;;26.76;30.33;100608.62;5529409;32;33168;-87
2022/07/11 09:19:30;;;;;;;7.62;1.70;;;;;;;27.36;28.26;100610.81;5531003;32;34160;-88
2022/07/11 09:25:55;;;;;;;7.18;1.20;;;;;;;26.64;28.85;100603.56;5531708;32;34130;-88
2022/07/11 09:28:59;;;;;;;7.12;1.50;;;;;;;28.08;26.97;100601.34;5530055;32;32657;-88
2022/07/11 09:32:03;;;;;;;5.00;1.50;;;;;;;28.38;26.26;100595.06;5531480;32;34581;-88
2022/07/11 09:35:11;;;;;;;5.82;1.30;;;;;;;28.66;25.70;100597.13;5531192;32;33951;-88
2022/07/11 09:38:16;;;;;;;4.72;1.25;;;;;;;28.92;24.25;100580.22;5531606;32;34890;-89
2022/07/11 09:41:19;;;;;;;3.25;1.25;;;;;;;28.52;24.44;100590.66;5530536;32;34263;-88
2022/07/11 09:44:32;;;;;;;4.37;1.60;;;;;;;27.49;26.30;100589.25;5531393;32;34289;-89
2022/07/11 09:47:46;;;;;;;3.08;1.10;;;;;;;26.47;27.61;100582.91;5532143;32;33777;-88
2022/07/11 09:51:04;;;;;;;3.45;1.48;;;;;;;26.37;27.44;100586.69;5530314;32;33826;-88
2022/07/11 09:54:07;;;;;;;4.47;1.50;;;;;;;27.46;26.47;100584.19;5534111;32;33846;-88
2022/07/11 09:57:11;;;;;;;3.72;1.37;;;;;;;27.88;25.70;100583.84;5532289;32;34450;-88
2022/07/11 10:00:13;;;;;;;4.62;1.45;;;;;;;28.36;25.15;100578.06;5531725;32;34796;-88
2022/07/11 10:03:16;;;;;;;2.95;1.45;;;;;;;29.24;24.04;100581.81;5539252;32;34468;-87
2022/07/11 10:06:39;;;;;;;3.28;1.20;;;;;;;30.57;22.41;100584.88;5544637;32;33821;-87
2022/07/11 10:09:41;;;;;;;3.72;1.27;;;;;;;29.92;22.34;100577.78;5535376;32;35182;-88
2022/07/11 10:12:48;;;;;;;4.62;1.20;;;;;;;30.21;22.34;100570.41;5542469;32;33266;-87
2022/07/11 10:15:57;;;;;;;2.35;1.12;;;;;;;28.88;22.84;100570.75;5541594;32;34509;-88
2022/07/11 10:19:25;;;;;;;3.53;1.15;;;;;;;29.53;22.70;100556.25;5536813;32;34217;-87
2022/07/11 10:22:38;;;;;;;2.83;1.20;;;;;;;29.89;21.86;100570.81;5529928;32;33471;-88
2022/07/11 10:25:49;;;;;;;3.60;1.25;;;;;;;29.62;20.93;100567.03;5531014;32;33795;-89
2022/07/11 10:28:56;;;;;;;6.15;1.75;;;;;;;30.19;20.43;100562.41;5530760;32;34452;-89
2022/07/11 10:32:10;;;;;;;6.75;1.25;;;;;;;30.18;20.61;100566.19;5530289;32;32916;-88
2022/07/11 10:35:17;;;;;;;2.67;1.60;;;;;;;26.78;24.93;100572.03;5529290;32;32700;-88
2022/07/11 10:38:20;;;;;;;5.50;1.95;;;;;;;25.88;27.26;100568.59;5529276;32;33008;-87
2022/07/11 10:41:24;;;;;;;7.82;1.65;;;;;;;25.86;26.89;100564.34;5530468;32;33584;-88
2022/07/11 10:44:46;;;;;;;4.15;1.20;;;;;;;27.27;25.23;100570.06;5531386;32;34614;-87
2022/07/11 10:47:49;;;;;;;6.90;1.83;;;;;;;27.97;23.85;100561.75;5532038;32;33941;-86
2022/07/11 10:51:22;;;;;;;5.07;1.83;;;;;;;28.37;24.35;100549.75;5532919;32;32575;-86
2022/07/11 10:54:28;;;;;;;8.43;1.50;;;;;;;29.33;22.77;100554.16;5531725;32;35264;-86
2022/07/11 10:57:49;;;;;;;3.80;1.45;;;;;;;27.97;24.11;100555.47;5535846;32;34213;-86
2022/07/11 11:01:10;;;;;;;5.32;1.50;;;;;;;28.42;22.83;100539.13;5550159;32;34891;-87
2022/07/11 11:04:31;;;;;;;;;;;;;;;28.08;23.41;100540.50;5552327;32;34437;-88
2022/07/11 11:11:22;;;;;;;3.35;1.80;;;;;;;26.46;26.12;100543.97;3283991;29;20119;-88
2022/07/11 11:22:11;;;;;;;7.10;1.50;;;;;;;25.27;26.75;100545.37;843807;29;20387;-87
2022/07/11 11:25:14;;;;;;;4.03;1.52;;;;;;;25.26;26.75;100543.69;5551392;32;32946;-88
2022/07/11 11:40:04;;;;;;;6.07;1.65;;;;;;;26.02;25.52;100539.00;4731884;27;20119;-92
2022/07/11 11:43:07;;;;;;;8.60;1.85;;;;;;;25.19;27.25;100547.22;5511341;32;34100;-89
2022/07/11 11:46:11;;;;;;;4.28;1.58;;;;;;;25.82;26.80;100537.56;5512469;32;33859;-88
2022/07/11 11:49:16;;;;;;;4.78;1.45;;;;;;;25.66;26.74;100538.44;5513430;32;34323;-88
2022/07/11 11:52:20;;;;;;;6.95;1.73;;;;;;;26.12;27.13;100545.09;5510737;32;33927;-88
2022/07/11 11:55:23;;;;;;;4.82;1.60;;;;;;;25.66;27.57;100545.72;5509724;32;33633;-87
2022/07/11 11:58:25;;;;;;;4.85;1.62;;;;;;;26.18;27.44;100541.69;5510068;32;34287;-87
2022/07/11 12:01:33;;;;;;;2.00;1.05;;;;;;;26.70;25.29;100554.91;5510967;32;34325;-89
2022/07/11 12:04:36;;;;;;;2.35;1.30;;;;;;;25.38;25.71;100557.75;5497400;32;32650;-89
2022/07/11 12:07:41;;;;;;;4.80;1.58;;;;;;;25.33;25.94;100572.87;5510568;32;34061;-89
2022/07/11 12:10:52;;;;;;;5.72;1.60;;;;;;;26.16;25.49;100551.03;5510902;32;34611;-89
2022/07/11 12:13:57;;;;;;;3.28;1.40;;;;;;;25.29;26.81;100547.94;5510732;32;33764;-88
2022/07/11 12:17:00;;;;;;;4.15;1.35;;;;;;;25.73;26.69;100546.72;5511292;32;34262;-89
2022/07/11 12:20:02;;;;;;;9.13;2.00;;;;;;;25.92;26.28;100531.06;5496780;32;32543;-89
2022/07/11 12:23:08;;;;;;;5.12;1.60;;;;;;;25.40;26.23;100546.72;5510924;32;34444;-89
2022/07/11 12:26:19;;;;;;;9.20;2.12;;;;;;;25.26;26.35;100531.97;5498718;32;33659;-89
2022/07/11 12:29:24;;;;;;;4.32;1.55;;;;;;;24.62;27.68;100536.94;5539796;26;33832;-88
2022/07/11 12:32:26;;;;;;;5.57;1.80;;;;;;;24.25;28.38;100535.44;5498729;32;34035;-89
2022/07/11 12:35:29;;;;;;;16.95;2.22;;;;;;;24.33;28.05;100545.44;5513295;32;33686;-89
2022/07/11 12:38:51;;;;;;;10.35;2.22;;;;;;;25.01;27.31;100538.22;5496599;32;32550;-88
2022/07/11 12:41:57;;;;;;;6.28;1.62;;;;;;;24.32;29.02;100541.91;5511179;32;33899;-88
2022/07/11 12:45:07;;;;;;;5.85;1.67;;;;;;;23.77;28.85;100546.66;5497934;32;34812;-88
2022/07/11 12:48:11;;;;;;;9.00;1.58;;;;;;;23.67;28.51;100549.47;5510630;32;34261;-87
2022/07/11 12:51:26;;;;;;;4.03;1.20;;;;;;;23.34;28.90;100545.66;5510401;32;33964;-87
2022/07/11 12:54:31;;;;;;;10.80;2.35;;;;;;;23.68;28.75;100532.22;5511378;32;34506;-88
2022/07/11 12:57:35;;;;;;;5.32;1.70;;;;;;;24.19;27.34;100525.25;5513086;32;34139;-88
2022/07/11 13:00:59;;;;;;;4.22;1.23;;;;;;;24.35;27.90;100529.88;5494127;32;33939;-89
2022/07/11 13:04:01;;;;;;;;;;;;;;;25.01;27.44;100515.66;5514436;32;34887;-84
2022/07/11 13:10:52;;;;;;;3.83;1.50;;;;;;;24.74;27.78;100517.63;5501251;32;33556;-84
2022/07/11 13:15:08;;;;;;;5.43;1.70;;;;;;;24.72;27.35;100533.22;5512580;32;34296;-86
2022/07/11 13:17:30;;;;;;;5.03;1.75;;;;;;;23.76;28.89;100531.41;5513189;32;34317;-83
2022/07/11 13:20:34;;;;;;;4.22;1.70;;;;;;;23.33;29.66;100528.56;5523400;32;36163;-83
2022/07/11 13:23:38;;;;;;;5.18;2.17;;;;;;;22.99;30.35;100529.25;5522784;32;34418;-84
